Time;durP1;ratioP1;P1;durP2;ratioP2;P2;SDS_P1;SDS_P2;PMS_P1;PMS_P2;Temp;Humidity;BMP_temperature;BMP_pressure;BME280_temperature;BME280_humidity;BME280_pressure;Samples;Min_cycle;Max_cycle;Signal;HPM_P1;HPM_P2
2023/03/15 00:01:49;;;;;;;1.80;0.60;;;8.70;99.90;;;;;;10439424;28;20392;-64
2023/03/15 00:06:49;;;;;;;2.00;0.50;;;8.70;99.90;;;;;;10432445;28;20100;-64
2023/03/15 00:11:53;;;;;;;0.93;0.60;;;8.60;99.90;;;;;;10437151;28;20025;-64
2023/03/15 00:16:54;;;;;;;1.20;0.50;;;8.70;99.90;;;;;;10439721;28;20027;-64
2023/03/15 00:21:54;;;;;;;0.98;0.60;;;8.60;99.90;;;;;;10437196;28;20029;-64
2023/03/15 00:26:55;;;;;;;1.10;0.65;;;8.60;99.90;;;;;;10439671;28;20116;-64
2023/03/15 00:31:55;;;;;;;5.38;0.70;;;8.60;99.90;;;;;;10440485;28;20029;-64
2023/03/15 00:36:56;;;;;;;1.40;0.52;;;8.60;99.90;;;;;;10436353;28;20512;-64
2023/03/15 00:41:56;;;;;;;1.67;0.70;;;8.50;99.90;;;;;;10435587;28;20489;-64
2023/03/15 00:46:57;;;;;;;1.17;0.60;;;8.50;99.90;;;;;;10437225;28;20316;-64
2023/03/15 00:51:57;;;;;;;1.73;0.60;;;8.50;99.90;;;;;;10436796;28;20041;-64
2023/03/15 00:57:02;;;;;;;0.63;0.60;;;8.50;99.90;;;;;;10430668;28;20061;-64
2023/03/15 01:02:05;;;;;;;1.63;0.60;;;8.50;99.90;;;;;;10434645;28;20159;-63
2023/03/15 01:07:06;;;;;;;0.88;0.40;;;8.50;99.90;;;;;;10433260;28;20029;-64
2023/03/15 01:12:07;;;;;;;1.20;0.63;;;8.50;99.90;;;;;;10436692;28;20489;-64
2023/03/15 01:17:08;;;;;;;1.77;0.50;;;8.50;99.90;;;;;;10427663;28;20172;-64
2023/03/15 01:22:08;;;;;;;2.10;0.35;;;8.40;99.90;;;;;;10433651;28;20417;-64
2023/03/15 01:27:09;;;;;;;1.25;0.50;;;8.40;99.90;;;;;;10431139;28;20033;-64
2023/03/15 01:32:10;;;;;;;1.67;0.40;;;8.40;99.90;;;;;;10437721;28;20037;-64
2023/03/15 01:37:13;;;;;;;2.67;0.70;;;8.40;99.90;;;;;;10428509;28;20112;-64
2023/03/15 01:42:14;;;;;;;1.25;0.70;;;8.40;99.90;;;;;;10432585;28;20021;-64
2023/03/15 01:47:14;;;;;;;1.33;0.65;;;8.30;99.90;;;;;;10431736;28;20032;-64
2023/03/15 01:52:20;;;;;;;1.10;0.50;;;8.30;99.90;;;;;;10423042;28;20382;-64
2023/03/15 01:57:35;;;;;;;2.08;0.60;;;8.30;99.90;;;;;;10426988;28;20582;-64
2023/03/15 02:02:36;;;;;;;0.93;0.50;;;8.30;99.90;;;;;;10425939;28;20033;-64
2023/03/15 02:07:48;;;;;;;0.88;0.40;;;8.30;99.90;;;;;;10428832;28;20314;-64
2023/03/15 02:12:51;;;;;;;0.90;0.60;;;8.30;99.90;;;;;;10429247;28;20030;-64
2023/03/15 02:17:52;;;;;;;2.28;0.40;;;8.20;99.90;;;;;;10426016;28;20594;-64
2023/03/15 02:22:57;;;;;;;0.77;0.50;;;8.30;99.90;;;;;;10419856;28;20029;-64
2023/03/15 02:27:59;;;;;;;3.42;0.75;;;8.20;99.90;;;;;;10428479;28;20619;-64
2023/03/15 02:33:03;;;;;;;0.73;0.35;;;8.20;99.90;;;;;;10427522;28;20029;-63
2023/03/15 02:38:04;;;;;;;1.92;0.80;;;8.20;99.90;;;;;;10427631;28;20051;-64
2023/03/15 02:43:10;;;;;;;1.23;0.40;;;8.20;99.90;;;;;;10425566;28;20092;-64
2023/03/15 02:48:12;;;;;;;3.50;0.68;;;8.20;99.90;;;;;;10432562;28;20028;-64
2023/03/15 02:53:12;;;;;;;1.83;0.77;;;8.20;99.90;;;;;;10430586;28;20509;-64
2023/03/15 02:58:13;;;;;;;0.82;0.50;;;8.10;99.90;;;;;;10427405;28;20017;-64
2023/03/15 03:03:14;;;;;;;1.77;0.50;;;8.10;99.90;;;;;;10426853;28;20025;-64
2023/03/15 03:08:15;;;;;;;1.67;0.50;;;8.10;99.90;;;;;;10426627;28;20109;-65
2023/03/15 03:13:16;;;;;;;2.08;0.45;;;8.10;99.90;;;;;;10428586;28;20493;-65
2023/03/15 03:18:16;;;;;;;3.25;0.50;;;8.10;99.90;;;;;;10426025;28;20486;-63
2023/03/15 03:23:17;;;;;;;1.83;0.50;;;8.10;99.90;;;;;;10435053;28;20040;-64
2023/03/15 03:28:18;;;;;;;1.60;0.40;;;8.00;99.90;;;;;;10438496;28;20111;-64
2023/03/15 03:33:21;;;;;;;1.70;0.50;;;8.00;99.90;;;;;;10431779;28;20024;-64
2023/03/15 03:38:21;;;;;;;1.52;0.47;;;8.00;99.90;;;;;;10438444;28;20035;-64
2023/03/15 03:43:22;;;;;;;0.85;0.30;;;8.00;99.90;;;;;;10432427;28;20033;-64
2023/03/15 03:48:22;;;;;;;1.58;0.40;;;8.00;99.90;;;;;;10434711;28;20024;-63
2023/03/15 03:53:23;;;;;;;1.08;0.40;;;8.00;99.90;;;;;;10431494;28;20025;-63
2023/03/15 03:58:24;;;;;;;0.80;0.30;;;7.90;99.90;;;;;;10440475;28;20033;-64
2023/03/15 04:03:27;;;;;;;0.50;0.40;;;7.90;99.90;;;;;;10437412;28;20598;-63
2023/03/15 04:08:28;;;;;;;0.70;0.40;;;7.90;99.90;;;;;;10434122;28;20096;-64
2023/03/15 04:13:29;;;;;;;1.05;0.50;;;7.90;99.90;;;;;;10435866;28;20029;-63
2023/03/15 04:18:29;;;;;;;1.42;0.40;;;7.90;99.90;;;;;;10437558;28;20029;-64
2023/03/15 04:23:30;;;;;;;1.90;0.40;;;7.80;99.90;;;;;;10436422;28;20435;-64
2023/03/15 04:28:31;;;;;;;1.98;0.52;;;7.80;99.90;;;;;;10436840;28;20112;-63
2023/03/15 04:33:31;;;;;;;1.30;0.45;;;7.80;99.90;;;;;;10430258;28;20711;-64
2023/03/15 04:38:34;;;;;;;0.98;0.43;;;7.80;99.90;;;;;;10427524;28;20116;-64
2023/03/15 04:43:34;;;;;;;1.88;0.50;;;7.80;99.90;;;;;;10435521;28;20032;-64
2023/03/15 04:48:36;;;;;;;0.60;0.35;;;7.70;99.90;;;;;;10436398;28;20035;-64
2023/03/15 04:53:38;;;;;;;1.00;0.52;;;7.70;99.90;;;;;;10430786;28;20033;-64
2023/03/15 04:58:39;;;;;;;0.43;0.30;;;7.70;99.90;;;;;;10437543;28;20082;-63
2023/03/15 05:03:42;;;;;;;2.05;0.30;;;7.70;99.90;;;;;;10430874;28;20037;-64
2023/03/15 05:08:44;;;;;;;2.47;0.30;;;7.70;99.90;;;;;;10431705;28;20025;-64
2023/03/15 05:13:45;;;;;;;1.33;0.20;;;7.70;99.90;;;;;;10433543;28;20109;-64
2023/03/15 05:18:45;;;;;;;1.05;0.30;;;7.60;99.90;;;;;;10424437;28;20381;-64
2023/03/15 05:23:46;;;;;;;0.88;0.38;;;7.70;99.90;;;;;;10423841;28;20116;-64
2023/03/15 05:28:46;;;;;;;1.02;0.50;;;7.70;99.90;;;;;;10432189;28;20029;-63
2023/03/15 05:33:47;;;;;;;1.08;0.40;;;7.60;99.90;;;;;;10430403;28;20036;-64
2023/03/15 05:38:47;;;;;;;0.82;0.30;;;7.70;99.90;;;;;;10426033;28;20104;-64
2023/03/15 05:43:49;;;;;;;2.13;0.55;;;7.60;99.90;;;;;;10426194;28;20033;-63
2023/03/15 05:48:50;;;;;;;1.00;0.30;;;7.60;99.90;;;;;;10426890;28;20029;-64
2023/03/15 05:53:50;;;;;;;0.70;0.40;;;7.60;99.90;;;;;;10438944;28;20499;-64
2023/03/15 05:58:51;;;;;;;1.00;0.30;;;7.60;99.90;;;;;;10435215;28;20098;-63
2023/03/15 06:03:52;;;;;;;1.38;0.32;;;7.60;99.90;;;;;;10428672;28;20591;-63
2023/03/15 06:08:52;;;;;;;2.03;0.38;;;7.60;99.90;;;;;;10432786;28;20028;-63
2023/03/15 06:13:53;;;;;;;0.82;0.40;;;7.60;99.90;;;;;;10435874;28;20492;-63
2023/03/15 06:18:53;;;;;;;1.30;0.50;;;7.60;99.90;;;;;;10436934;28;20031;-63
2023/03/15 06:23:54;;;;;;;1.23;0.38;;;7.60;99.90;;;;;;10432167;28;20029;-64
2023/03/15 06:28:55;;;;;;;0.40;0.30;;;7.60;99.90;;;;;;10430383;28;20500;-63
2023/03/15 06:33:55;;;;;;;0.90;0.60;;;7.60;99.90;;;;;;10434397;28;20587;-64
2023/03/15 06:38:56;;;;;;;1.98;0.50;;;7.60;99.90;;;;;;10426781;28;20037;-64
2023/03/15 06:43:56;;;;;;;2.90;0.57;;;7.60;99.90;;;;;;10421167;28;20029;-64
2023/03/15 06:48:57;;;;;;;2.45;0.60;;;7.60;99.90;;;;;;10436402;28;20025;-63
2023/03/15 06:53:57;;;;;;;1.17;0.50;;;7.60;99.90;;;;;;10434151;28;20400;-65
2023/03/15 06:58:58;;;;;;;2.83;0.50;;;7.60;99.90;;;;;;10427008;28;20462;-63
2023/03/15 07:03:59;;;;;;;1.40;0.60;;;7.60;99.90;;;;;;10418085;28;20037;-64
2023/03/15 07:08:59;;;;;;;0.70;0.50;;;7.60;99.90;;;;;;10432875;28;20074;-63
2023/03/15 07:14:00;;;;;;;1.00;0.57;;;7.60;99.90;;;;;;10434152;28;20140;-68
2023/03/15 07:19:01;;;;;;;0.98;0.57;;;7.60;99.90;;;;;;10431318;28;20091;-63
2023/03/15 07:24:02;;;;;;;0.90;0.57;;;7.60;99.90;;;;;;10434305;28;20024;-64
2023/03/15 07:29:02;;;;;;;3.15;0.93;;;7.60;99.90;;;;;;10434896;28;20489;-63
2023/03/15 07:34:03;;;;;;;3.30;0.55;;;7.70;99.90;;;;;;10430376;28;20048;-64
2023/03/15 07:39:04;;;;;;;2.65;0.77;;;7.70;99.90;;;;;;10433968;28;20489;-63
2023/03/15 07:44:04;;;;;;;2.05;0.73;;;7.80;99.90;;;;;;10433266;28;20025;-63
2023/03/15 07:49:05;;;;;;;1.60;0.50;;;7.90;99.90;;;;;;10437044;28;20512;-64
2023/03/15 07:54:06;;;;;;;1.35;0.63;;;8.00;99.90;;;;;;10428509;28;20512;-63
2023/03/15 07:59:06;;;;;;;2.13;0.60;;;8.10;99.80;;;;;;10431891;28;20037;-64
2023/03/15 08:04:07;;;;;;;1.98;0.70;;;8.20;99.70;;;;;;10431876;28;20021;-64
2023/03/15 08:09:08;;;;;;;1.55;0.68;;;8.30;99.60;;;;;;10430415;28;20396;-64
2023/03/15 08:14:08;;;;;;;2.05;0.70;;;8.30;99.60;;;;;;10437981;28;20271;-63
2023/03/15 08:19:09;;;;;;;2.28;0.80;;;8.40;99.50;;;;;;10437012;28;20394;-63
2023/03/15 08:24:11;;;;;;;1.50;0.75;;;8.50;99.50;;;;;;10441370;28;20093;-63
2023/03/15 08:29:11;;;;;;;1.20;0.50;;;8.60;99.50;;;;;;10444960;28;20033;-63
2023/03/15 08:34:12;;;;;;;2.58;0.80;;;8.60;99.40;;;;;;10440778;28;20028;-63
2023/03/15 08:39:13;;;;;;;2.30;0.80;;;8.70;99.40;;;;;;10438294;28;20385;-63
2023/03/15 08:44:13;;;;;;;0.70;0.50;;;8.80;99.30;;;;;;10433540;28;20116;-64
2023/03/15 08:49:14;;;;;;;1.88;0.77;;;8.80;99.30;;;;;;10441705;28;20025;-64
2023/03/15 08:54:14;;;;;;;1.30;0.60;;;8.80;99.40;;;;;;10436181;28;20358;-63
2023/03/15 08:59:15;;;;;;;1.30;0.70;;;8.70;99.40;;;;;;10432066;28;20033;-63
2023/03/15 09:04:16;;;;;;;0.70;0.60;;;8.70;99.40;;;;;;10434682;28;20025;-65
2023/03/15 09:09:16;;;;;;;2.75;0.70;;;8.70;99.50;;;;;;10431568;28;20271;-66
2023/03/15 09:14:17;;;;;;;5.57;0.70;;;8.80;99.10;;;;;;10439804;28;20025;-64
2023/03/15 09:19:18;;;;;;;3.17;1.00;;;8.60;98.70;;;;;;10436180;28;20029;-64
2023/03/15 09:24:18;;;;;;;3.20;1.02;;;8.40;98.60;;;;;;10426862;28;20025;-64
2023/03/15 09:29:19;;;;;;;4.25;0.75;;;8.10;98.20;;;;;;10441045;28;20032;-65
2023/03/15 09:34:21;;;;;;;7.75;0.95;;;7.90;98.60;;;;;;10442028;28;20515;-64
2023/03/15 09:39:22;;;;;;;4.35;0.80;;;7.80;98.30;;;;;;10440287;28;20025;-65
2023/03/15 09:44:53;;;;;;;5.57;0.85;;;7.80;97.90;;;;;;10435136;28;20396;-64
2023/03/15 09:50:01;;;;;;;3.97;0.77;;;7.70;96.80;;;;;;10432814;28;20036;-64
2023/03/15 09:55:22;;;;;;;7.70;1.35;;;7.60;97.50;;;;;;10437919;28;20045;-65
2023/03/15 10:00:26;;;;;;;6.45;0.80;;;7.60;97.10;;;;;;10427384;28;20028;-64
2023/03/15 10:05:41;;;;;;;4.22;1.10;;;7.60;97.40;;;;;;10426156;28;20125;-65
2023/03/15 10:10:59;;;;;;;5.55;0.95;;;7.70;96.90;;;;;;10430509;28;20112;-65
2023/03/15 10:16:33;;;;;;;3.10;0.70;;;8.00;97.10;;;;;;10434394;28;20048;-64
2023/03/15 10:22:07;;;;;;;6.57;1.27;;;8.10;97.00;;;;;;10437337;28;20044;-63
2023/03/15 10:27:21;;;;;;;2.72;0.75;;;8.30;96.90;;;;;;10450529;28;20156;-64
2023/03/15 10:32:27;;;;;;;5.93;1.05;;;8.40;97.00;;;;;;10430471;28;20032;-63
2023/03/15 10:37:27;;;;;;;3.45;0.65;;;8.60;97.10;;;;;;10437678;28;20598;-63
2023/03/15 10:42:30;;;;;;;3.30;0.75;;;8.60;97.10;;;;;;10441462;28;20025;-64
2023/03/15 10:47:40;;;;;;;2.97;1.40;;;8.80;97.10;;;;;;10441293;28;20071;-63
2023/03/15 10:52:42;;;;;;;3.35;0.77;;;8.90;97.10;;;;;;10438829;28;20071;-63
2023/03/15 10:57:56;;;;;;;2.58;0.77;;;8.90;97.10;;;;;;10432187;28;20312;-64
2023/03/15 11:03:03;;;;;;;1.63;0.52;;;9.00;97.10;;;;;;10434048;28;20021;-64
2023/03/15 11:08:15;;;;;;;6.15;0.70;;;9.10;96.60;;;;;;10430567;28;20271;-64
2023/03/15 11:13:21;;;;;;;5.25;0.90;;;9.00;95.80;;;;;;10432536;28;20028;-64
2023/03/15 11:18:29;;;;;;;5.55;0.77;;;9.00;95.70;;;;;;10435512;28;20058;-64
2023/03/15 11:23:35;;;;;;;4.20;0.85;;;8.90;95.50;;;;;;10432832;28;20511;-64
2023/03/15 11:28:42;;;;;;;7.13;1.10;;;8.80;95.50;;;;;;10432422;28;20527;-64
2023/03/15 11:33:55;;;;;;;2.47;0.70;;;8.80;95.50;;;;;;10439514;28;20123;-64
2023/03/15 11:38:59;;;;;;;2.60;0.55;;;8.80;93.80;;;;;;10429243;28;20032;-64
2023/03/15 11:44:08;;;;;;;3.30;0.52;;;8.80;94.90;;;;;;10436266;28;20439;-64
2023/03/15 11:49:21;;;;;;;2.45;0.50;;;8.60;93.50;;;;;;10429331;28;20052;-64
2023/03/15 11:54:27;;;;;;;4.45;0.65;;;8.60;93.10;;;;;;10447734;28;20017;-64
2023/03/15 11:59:29;;;;;;;6.38;0.65;;;8.70;94.10;;;;;;10437863;28;20032;-63
2023/03/15 12:04:33;;;;;;;1.20;0.40;;;8.80;93.70;;;;;;10432489;28;20037;-64
2023/03/15 12:09:36;;;;;;;8.00;0.95;;;8.80;93.20;;;;;;10437227;28;20025;-64
2023/03/15 12:14:37;;;;;;;4.30;0.82;;;8.90;93.20;;;;;;10438862;28;20040;-64
2023/03/15 12:19:37;;;;;;;4.80;0.50;;;8.90;92.90;;;;;;10434295;28;20029;-64
2023/03/15 12:24:39;;;;;;;2.33;0.70;;;9.00;92.50;;;;;;10438439;28;20036;-63
2023/03/15 12:29:43;;;;;;;1.92;0.47;;;9.00;92.40;;;;;;10435787;28;20017;-64
2023/03/15 12:34:55;;;;;;;6.00;0.70;;;9.10;92.00;;;;;;10434643;28;20076;-64
2023/03/15 12:40:14;;;;;;;2.50;0.85;;;9.10;91.20;;;;;;10425307;28;20033;-63
2023/03/15 12:45:15;;;;;;;2.03;0.60;;;9.20;90.40;;;;;;10441163;28;20105;-65
2023/03/15 12:50:35;;;;;;;2.22;0.98;;;9.20;90.90;;;;;;10436606;28;20372;-65
2023/03/15 12:55:37;;;;;;;4.68;1.05;;;9.20;89.50;;;;;;10436935;28;20032;-65
2023/03/15 13:00:41;;;;;;;2.72;0.80;;;9.20;90.90;;;;;;10433602;28;20029;-65
2023/03/15 13:06:00;;;;;;;5.13;1.08;;;9.30;91.00;;;;;;10437635;28;20055;-65
2023/03/15 13:11:22;;;;;;;4.13;0.95;;;9.30;90.80;;;;;;10437171;28;20032;-65
2023/03/15 13:16:48;;;;;;;0.98;0.40;;;9.30;90.30;;;;;;10432399;28;20021;-64
2023/03/15 13:22:21;;;;;;;4.53;0.75;;;9.30;87.90;;;;;;10434820;28;20485;-64
2023/03/15 13:27:34;;;;;;;2.88;0.50;;;9.40;88.60;;;;;;10437207;28;20385;-66
2023/03/15 13:32:42;;;;;;;3.03;0.63;;;9.40;89.20;;;;;;10441186;28;20025;-65
2023/03/15 13:37:43;;;;;;;3.83;1.23;;;9.40;88.00;;;;;;10431238;28;20026;-65
2023/03/15 13:42:44;;;;;;;4.00;0.70;;;9.40;85.80;;;;;;10435280;28;20025;-65
2023/03/15 13:47:45;;;;;;;5.93;0.82;;;9.60;86.60;;;;;;10428979;28;20033;-65
2023/03/15 13:52:47;;;;;;;5.40;0.80;;;9.60;86.00;;;;;;10437304;28;20028;-64
2023/03/15 13:57:58;;;;;;;0.68;0.45;;;9.80;84.90;;;;;;10434791;28;20032;-64
2023/03/15 14:03:03;;;;;;;3.35;0.55;;;10.00;83.40;;;;;;10436410;28;20029;-64
2023/03/15 14:08:20;;;;;;;3.50;0.50;;;10.20;83.60;;;;;;10429913;28;20045;-64
2023/03/15 14:13:24;;;;;;;5.10;0.60;;;10.40;81.40;;;;;;10434309;28;20196;-65
2023/03/15 14:18:31;;;;;;;3.75;0.47;;;10.60;82.10;;;;;;10426608;28;20056;-64
2023/03/15 14:23:39;;;;;;;4.70;1.23;;;10.70;81.20;;;;;;10430322;28;20303;-65
2023/03/15 14:28:40;;;;;;;8.10;0.85;;;10.90;82.20;;;;;;10432957;28;20668;-64
2023/03/15 14:33:41;;;;;;;4.22;0.68;;;11.00;81.00;;;;;;10431192;28;20028;-63
2023/03/15 14:38:52;;;;;;;4.45;0.70;;;11.00;82.10;;;;;;10433782;28;20408;-63
2023/03/15 14:43:53;;;;;;;2.72;0.50;;;11.00;82.50;;;;;;10428887;28;20106;-64
2023/03/15 14:48:53;;;;;;;3.72;0.70;;;11.10;84.10;;;;;;10439440;28;20037;-62
2023/03/15 14:53:56;;;;;;;3.47;0.70;;;11.20;85.10;;;;;;10438421;28;20033;-63
2023/03/15 14:58:56;;;;;;;3.38;0.60;;;11.30;85.90;;;;;;10434477;28;20025;-64
2023/03/15 15:04:01;;;;;;;2.15;0.50;;;11.30;87.10;;;;;;10438086;28;20033;-63
2023/03/15 15:09:04;;;;;;;1.13;0.50;;;11.40;87.50;;;;;;10432969;28;20017;-63
2023/03/15 15:14:11;;;;;;;2.85;0.68;;;11.40;88.10;;;;;;10431721;28;20239;-65
2023/03/15 15:19:13;;;;;;;3.40;0.65;;;11.40;86.30;;;;;;10432250;28;20583;-65
2023/03/15 15:24:17;;;;;;;3.38;0.63;;;11.20;85.40;;;;;;10433416;28;20043;-64
2023/03/15 15:29:18;;;;;;;3.28;1.05;;;10.90;83.80;;;;;;10427850;28;20013;-64
2023/03/15 15:34:18;;;;;;;1.33;0.40;;;10.60;83.80;;;;;;10433283;28;20040;-63
2023/03/15 15:39:26;;;;;;;4.53;0.80;;;10.20;84.00;;;;;;10428351;28;20044;-64
2023/03/15 15:44:27;;;;;;;3.20;1.00;;;10.00;83.30;;;;;;10432402;28;20021;-63
2023/03/15 15:49:27;;;;;;;2.33;0.65;;;9.80;83.70;;;;;;10430108;28;20005;-65
2023/03/15 15:54:30;;;;;;;3.60;0.65;;;9.70;83.50;;;;;;10431607;28;20029;-65
2023/03/15 15:59:31;;;;;;;4.90;0.57;;;9.60;83.10;;;;;;10431831;28;20078;-65
2023/03/15 16:04:31;;;;;;;1.63;0.40;;;9.40;83.40;;;;;;10437778;28;20029;-65
2023/03/15 16:09:36;;;;;;;1.65;0.50;;;9.30;83.20;;;;;;10427147;28;20064;-65
2023/03/15 16:14:37;;;;;;;1.83;0.50;;;9.30;83.50;;;;;;10430700;28;20683;-66
2023/03/15 16:19:37;;;;;;;2.10;0.40;;;9.30;83.40;;;;;;10424909;28;20033;-65
2023/03/15 16:24:42;;;;;;;5.07;0.80;;;9.20;82.90;;;;;;10429256;28;20033;-65
2023/03/15 16:29:48;;;;;;;3.47;0.82;;;9.10;82.80;;;;;;10430281;28;20048;-65
2023/03/15 16:34:53;;;;;;;2.45;0.70;;;9.00;82.40;;;;;;10429198;28;20032;-65
2023/03/15 16:39:54;;;;;;;7.88;1.27;;;8.90;82.80;;;;;;10434487;28;20404;-65
2023/03/15 16:44:55;;;;;;;6.68;0.88;;;8.90;82.80;;;;;;10443379;28;20017;-64
2023/03/15 16:49:56;;;;;;;3.97;0.60;;;8.90;83.50;;;;;;10430625;28;20023;-65
2023/03/15 16:54:57;;;;;;;1.42;0.57;;;9.10;84.40;;;;;;10438476;28;20028;-64
2023/03/15 16:59:57;;;;;;;2.10;0.43;;;9.20;85.30;;;;;;10438020;28;20057;-64
2023/03/15 17:04:58;;;;;;;2.13;0.55;;;9.40;86.20;;;;;;10433862;28;20112;-65
2023/03/15 17:10:06;;;;;;;2.20;0.70;;;9.50;86.90;;;;;;10440387;28;20025;-65
2023/03/15 17:15:07;;;;;;;3.03;0.60;;;9.60;87.60;;;;;;10435264;28;20504;-65
2023/03/15 17:20:09;;;;;;;4.13;0.70;;;9.60;88.40;;;;;;10434352;28;20025;-64
2023/03/15 17:25:10;;;;;;;2.15;0.82;;;9.70;89.00;;;;;;10437642;28;20083;-65
2023/03/15 17:30:21;;;;;;;3.60;0.60;;;9.70;89.70;;;;;;10436866;28;20044;-63
2023/03/15 17:35:27;;;;;;;2.67;0.50;;;9.70;90.10;;;;;;10434209;28;20540;-65
2023/03/15 17:40:30;;;;;;;3.03;0.68;;;9.80;90.30;;;;;;10436588;28;20413;-64
2023/03/15 17:45:33;;;;;;;3.70;0.93;;;9.70;90.20;;;;;;10428918;28;20029;-65
2023/03/15 17:50:34;;;;;;;2.67;0.80;;;9.60;90.40;;;;;;10434141;28;20282;-64
2023/03/15 17:55:35;;;;;;;1.48;0.70;;;9.60;90.60;;;;;;10434470;28;20029;-64
2023/03/15 18:00:36;;;;;;;2.08;0.70;;;9.60;90.90;;;;;;10434567;28;20319;-64
2023/03/15 18:05:37;;;;;;;2.20;0.88;;;9.60;91.10;;;;;;10432713;28;20409;-64
2023/03/15 18:10:40;;;;;;;1.55;0.60;;;9.70;91.40;;;;;;10434962;28;20018;-64
2023/03/15 18:15:41;;;;;;;3.40;0.93;;;9.70;91.50;;;;;;10430387;28;20035;-65
2023/03/15 18:20:43;;;;;;;6.68;1.33;;;9.60;91.60;;;;;;10433056;28;20463;-64
2023/03/15 18:25:44;;;;;;;2.55;0.98;;;9.50;91.40;;;;;;10429058;28;20021;-64
2023/03/15 18:30:45;;;;;;;4.82;0.95;;;9.40;91.70;;;;;;10436392;28;20040;-64
2023/03/15 18:35:45;;;;;;;8.93;2.08;;;9.40;91.80;;;;;;10430546;28;20052;-64
2023/03/15 18:40:46;;;;;;;2.92;1.08;;;9.40;91.90;;;;;;10427828;28;20670;-64
2023/03/15 18:45:47;;;;;;;2.35;0.82;;;9.40;91.90;;;;;;10429684;28;20021;-64
2023/03/15 18:50:48;;;;;;;1.95;0.93;;;9.40;92.00;;;;;;10429995;28;20036;-64
2023/03/15 18:55:49;;;;;;;4.78;1.13;;;9.40;92.10;;;;;;10428821;28;20105;-65
2023/03/15 19:00:49;;;;;;;1.85;0.80;;;9.40;92.20;;;;;;10433719;28;20273;-64
2023/03/15 19:05:50;;;;;;;3.63;0.95;;;9.40;92.20;;;;;;10423683;28;20037;-65
2023/03/15 19:10:57;;;;;;;2.25;0.80;;;9.40;92.30;;;;;;10426550;28;20044;-64
2023/03/15 19:15:58;;;;;;;4.28;1.15;;;9.40;92.40;;;;;;10428098;28;20083;-64
2023/03/15 19:20:59;;;;;;;3.80;0.93;;;9.40;92.50;;;;;;10430249;28;20098;-65
2023/03/15 19:26:00;;;;;;;6.10;1.15;;;9.30;92.50;;;;;;10431299;28;20416;-64
2023/03/15 19:31:00;;;;;;;3.17;0.77;;;9.30;92.60;;;;;;10430229;28;20022;-64
2023/03/15 19:36:01;;;;;;;2.47;0.77;;;9.30;92.70;;;;;;10432198;28;20043;-64
2023/03/15 19:41:06;;;;;;;2.05;0.88;;;9.30;92.80;;;;;;10432285;28;20013;-65
2023/03/15 19:46:07;;;;;;;4.30;1.00;;;9.30;92.90;;;;;;10434539;28;20025;-65
2023/03/15 19:51:09;;;;;;;1.35;0.82;;;9.30;93.00;;;;;;10431661;28;20096;-64
2023/03/15 19:56:10;;;;;;;1.67;0.90;;;9.30;93.10;;;;;;10429907;28;20020;-64
2023/03/15 20:01:10;;;;;;;1.63;0.80;;;9.20;93.10;;;;;;10424586;28;20464;-65
2023/03/15 20:06:12;;;;;;;1.90;0.82;;;9.20;93.20;;;;;;10431877;28;20025;-64
2023/03/15 20:11:18;;;;;;;4.85;0.90;;;9.20;93.30;;;;;;10434456;28;20021;-65
2023/03/15 20:16:20;;;;;;;2.42;1.02;;;9.20;93.30;;;;;;10436225;28;20029;-64
2023/03/15 20:21:21;;;;;;;2.50;1.00;;;9.20;93.40;;;;;;10437194;28;20040;-64
2023/03/15 20:26:23;;;;;;;2.10;1.10;;;9.20;93.40;;;;;;10437673;28;20045;-64
2023/03/15 20:31:24;;;;;;;3.95;0.98;;;9.10;93.40;;;;;;10439700;28;20321;-65
2023/03/15 20:36:25;;;;;;;1.65;1.13;;;9.10;93.50;;;;;;10428401;28;20029;-64
2023/03/15 20:41:26;;;;;;;3.75;1.20;;;9.10;93.50;;;;;;10437904;28;20029;-64
2023/03/15 20:46:28;;;;;;;3.22;1.25;;;9.10;93.60;;;;;;10441141;28;20067;-64
2023/03/15 20:51:28;;;;;;;2.30;1.10;;;9.10;93.60;;;;;;10435798;28;20436;-64
2023/03/15 20:56:29;;;;;;;1.48;1.13;;;9.10;93.60;;;;;;10434063;28;20025;-64
2023/03/15 21:01:30;;;;;;;3.00;1.35;;;9.00;93.60;;;;;;10438474;28;20049;-64
2023/03/15 21:06:32;;;;;;;4.00;1.60;;;9.00;93.70;;;;;;10436116;28;20025;-64
2023/03/15 21:11:32;;;;;;;2.33;1.33;;;9.00;93.70;;;;;;10430735;28;20039;-64
2023/03/15 21:16:33;;;;;;;4.80;1.45;;;9.00;93.70;;;;;;10429322;28;20013;-65
2023/03/15 21:21:33;;;;;;;1.80;1.40;;;9.00;93.80;;;;;;10433632;28;20029;-64
2023/03/15 21:26:34;;;;;;;2.35;1.30;;;8.90;93.80;;;;;;10433557;28;20028;-64
2023/03/15 21:31:35;;;;;;;1.65;1.10;;;9.00;93.80;;;;;;10433908;28;20025;-64
2023/03/15 21:36:36;;;;;;;4.03;1.42;;;8.90;93.80;;;;;;10431618;28;20067;-64
2023/03/15 21:41:37;;;;;;;2.15;1.13;;;8.90;93.80;;;;;;10427910;28;20501;-65
2023/03/15 21:46:38;;;;;;;2.60;1.58;;;8.90;93.90;;;;;;10432459;28;20017;-64
2023/03/15 21:51:38;;;;;;;1.90;1.10;;;8.90;93.90;;;;;;10430733;28;20431;-64
2023/03/15 21:56:40;;;;;;;3.47;1.48;;;8.90;93.90;;;;;;10435183;28;20020;-63
2023/03/15 22:01:40;;;;;;;4.40;1.20;;;8.80;93.90;;;;;;10426341;28;20689;-64
2023/03/15 22:06:41;;;;;;;3.13;1.40;;;8.80;93.90;;;;;;10432425;28;20028;-64
2023/03/15 22:11:42;;;;;;;4.20;1.55;;;8.80;93.90;;;;;;10434585;28;20025;-64
2023/03/15 22:16:42;;;;;;;2.80;1.40;;;8.80;93.90;;;;;;10430633;28;20071;-64
2023/03/15 22:21:43;;;;;;;2.28;1.30;;;8.80;93.90;;;;;;10430639;28;20032;-64
2023/03/15 22:26:44;;;;;;;2.55;1.30;;;8.70;93.90;;;;;;10427557;28;20143;-64
2023/03/15 22:31:45;;;;;;;1.85;1.02;;;8.70;93.90;;;;;;10431911;28;20025;-64
2023/03/15 22:36:45;;;;;;;2.60;1.35;;;8.70;93.90;;;;;;10416537;28;20021;-64
2023/03/15 22:41:46;;;;;;;2.38;1.40;;;8.70;93.90;;;;;;10429519;28;20504;-64
2023/03/15 22:46:46;;;;;;;5.80;1.65;;;8.70;93.90;;;;;;10422765;28;20100;-64
2023/03/15 22:51:47;;;;;;;3.78;1.40;;;8.70;94.00;;;;;;10425221;28;20033;-65
2023/03/15 22:56:48;;;;;;;3.20;1.30;;;8.60;93.90;;;;;;10430875;28;20443;-64
2023/03/15 23:01:48;;;;;;;3.95;1.58;;;8.60;94.00;;;;;;10427785;28;20399;-63
2023/03/15 23:06:50;;;;;;;2.17;1.10;;;8.60;94.00;;;;;;10427091;28;20028;-64
2023/03/15 23:11:51;;;;;;;3.28;1.33;;;8.60;94.00;;;;;;10427486;28;20519;-64
2023/03/15 23:16:51;;;;;;;2.50;1.30;;;8.60;94.00;;;;;;10425085;28;20029;-64
2023/03/15 23:21:52;;;;;;;4.68;1.42;;;8.60;94.00;;;;;;10374384;28;1289897;-64
2023/03/15 23:26:55;;;;;;;3.92;1.33;;;8.50;94.00;;;;;;10428586;28;20025;-64
2023/03/15 23:31:56;;;;;;;2.45;1.60;;;8.50;94.00;;;;;;10426890;28;20118;-64
2023/03/15 23:36:56;;;;;;;5.63;1.60;;;8.50;94.00;;;;;;10431009;28;20502;-64
2023/03/15 23:41:57;;;;;;;4.45;1.48;;;8.50;94.00;;;;;;10434946;28;20036;-63
2023/03/15 23:46:57;;;;;;;3.50;1.38;;;8.50;94.00;;;;;;10439249;28;20021;-64
2023/03/15 23:52:04;;;;;;;2.30;1.60;;;8.50;93.90;;;;;;10435708;28;20025;-64
2023/03/15 23:57:09;;;;;;;4.28;1.38;;;8.50;93.90;;;;;;10436786;28;20017;-64
